createdAt,value
2023-04-16T00:00:06.944Z,4.80
2023-04-16T00:02:35.124Z,4.80
2023-04-16T00:05:04.054Z,4.83
2023-04-16T00:07:33.474Z,4.57
2023-04-16T00:10:01.418Z,3.90
2023-04-16T00:12:29.292Z,4.70
2023-04-16T00:14:57.112Z,5.33
2023-04-16T00:17:25.069Z,4.50
2023-04-16T00:19:53.062Z,5.17
2023-04-16T00:22:20.956Z,5.10
2023-04-16T00:24:50.229Z,4.87
2023-04-16T00:27:19.450Z,4.63
2023-04-16T00:29:47.324Z,4.40
2023-04-16T00:32:15.588Z,5.73
2023-04-16T00:34:43.552Z,5.10
2023-04-16T00:37:11.478Z,5.80
2023-04-16T00:39:39.359Z,5.07
2023-04-16T00:42:08.699Z,5.67
2023-04-16T00:44:36.935Z,5.20
2023-04-16T00:47:07.545Z,5.13
2023-04-16T00:49:37.033Z,4.77
2023-04-16T00:52:05.441Z,4.80
2023-04-16T00:54:33.486Z,4.90
2023-04-16T00:57:01.651Z,5.53
2023-04-16T00:59:30.893Z,5.13
2023-04-16T01:01:58.891Z,5.20
2023-04-16T01:04:27.319Z,5.60
2023-04-16T01:06:55.451Z,5.50
2023-04-16T01:09:23.572Z,4.70
2023-04-16T01:11:51.558Z,5.77
2023-04-16T01:14:19.488Z,5.50
2023-04-16T01:16:48.802Z,5.20
2023-04-16T01:19:16.701Z,5.00
2023-04-16T01:21:46.679Z,5.77
2023-04-16T01:24:14.513Z,5.50
2023-04-16T01:26:42.403Z,5.10
2023-04-16T01:29:10.602Z,5.57
2023-04-16T01:31:38.823Z,6.13
2023-04-16T01:34:06.748Z,4.97
2023-04-16T01:36:34.846Z,5.43
2023-04-16T01:39:04.305Z,5.00
2023-04-16T01:41:32.411Z,5.67
2023-04-16T01:44:00.283Z,5.47
2023-04-16T01:46:29.948Z,5.00
2023-04-16T01:48:57.985Z,4.90
2023-04-16T01:51:27.204Z,4.87
2023-04-16T01:53:55.314Z,5.13
2023-04-16T01:56:24.533Z,5.30
2023-04-16T01:58:52.362Z,5.20
2023-04-16T02:01:20.746Z,4.30
2023-04-16T02:03:49.487Z,5.40
2023-04-16T02:06:17.540Z,4.90
2023-04-16T02:08:45.635Z,4.93
2023-04-16T02:11:13.516Z,4.80
2023-04-16T02:13:43.162Z,5.30
2023-04-16T02:16:11.184Z,5.10
2023-04-16T02:18:39.251Z,5.50
2023-04-16T02:21:07.913Z,5.30
2023-04-16T02:23:35.950Z,5.40
2023-04-16T02:26:04.614Z,4.40
2023-04-16T02:28:32.951Z,5.20
2023-04-16T02:31:02.609Z,4.80
2023-04-16T02:33:31.956Z,5.47
2023-04-16T02:36:00.121Z,4.80
2023-04-16T02:38:28.324Z,6.17
2023-04-16T02:40:56.503Z,5.80
2023-04-16T02:43:24.860Z,4.90
2023-04-16T02:45:53.005Z,4.83
2023-04-16T02:48:22.734Z,5.50
2023-04-16T02:50:51.028Z,5.33
2023-04-16T02:53:19.193Z,4.73
2023-04-16T02:55:52.893Z,5.43
2023-04-16T02:58:21.464Z,5.30
2023-04-16T03:00:49.549Z,4.80
2023-04-16T03:03:17.507Z,5.87
2023-04-16T03:05:46.778Z,6.07
2023-04-16T03:08:14.834Z,5.90
2023-04-16T03:10:42.702Z,6.47
2023-04-16T03:13:10.598Z,6.23
2023-04-16T03:15:38.520Z,5.33
2023-04-16T03:18:06.853Z,5.63
2023-04-16T03:20:35.052Z,5.90
2023-04-16T03:23:04.337Z,5.10
2023-04-16T03:25:32.207Z,5.53
2023-04-16T03:28:00.221Z,6.87
2023-04-16T03:30:28.080Z,5.87
2023-04-16T03:32:56.016Z,6.00
2023-04-16T03:35:23.931Z,6.37
2023-04-16T03:37:51.785Z,6.33
2023-04-16T03:40:21.058Z,5.77
2023-04-16T03:42:48.948Z,6.00
2023-04-16T03:45:17.085Z,5.33
2023-04-16T03:47:45.164Z,6.07
2023-04-16T03:50:13.371Z,5.70
2023-04-16T03:52:41.340Z,6.03
2023-04-16T03:55:09.880Z,5.80
2023-04-16T03:57:39.115Z,5.57
2023-04-16T04:00:08.756Z,6.10
2023-04-16T04:02:36.810Z,6.10
2023-04-16T04:05:05.693Z,6.33
2023-04-16T04:07:33.689Z,5.90
2023-04-16T04:10:01.545Z,5.70
2023-04-16T04:12:29.412Z,5.93
2023-04-16T04:14:58.617Z,6.53
2023-04-16T04:17:26.487Z,5.87
2023-04-16T04:20:01.205Z,5.27
2023-04-16T04:22:30.241Z,5.77
2023-04-16T04:24:58.156Z,6.23
2023-04-16T04:27:26.205Z,5.87
2023-04-16T04:29:54.790Z,6.07
2023-04-16T04:32:24.230Z,6.30
2023-04-16T04:34:52.135Z,6.90
2023-04-16T04:37:19.963Z,6.67
2023-04-16T04:39:47.936Z,5.20
2023-04-16T04:42:19.082Z,5.13
2023-04-16T04:44:47.319Z,5.97
2023-04-16T04:47:15.970Z,6.00
2023-04-16T04:49:45.204Z,6.03
2023-04-16T04:52:13.039Z,5.77
2023-04-16T04:54:41.705Z,5.90
2023-04-16T04:57:09.809Z,5.57
2023-04-16T04:59:37.688Z,6.17
2023-04-16T05:02:05.845Z,5.77
2023-04-16T05:04:55.252Z,6.30
2023-04-16T05:07:23.476Z,5.60
2023-04-16T05:09:51.969Z,5.67
2023-04-16T05:12:19.802Z,6.20
2023-04-16T05:14:47.697Z,6.37
2023-04-16T05:17:15.507Z,6.40
2023-04-16T05:19:43.370Z,5.63
2023-04-16T05:22:12.624Z,5.60
2023-04-16T05:24:40.523Z,6.20
2023-04-16T05:27:08.413Z,6.03
2023-04-16T05:29:36.476Z,6.27
2023-04-16T05:32:04.388Z,5.90
2023-04-16T05:34:32.250Z,5.50
2023-04-16T05:37:00.908Z,5.23
2023-04-16T05:39:30.150Z,5.60
2023-04-16T05:41:58.037Z,5.90
2023-04-16T05:44:26.775Z,5.67
2023-04-16T05:46:54.666Z,5.80
2023-04-16T05:49:22.534Z,6.30
2023-04-16T05:51:51.064Z,5.40
2023-04-16T05:54:19.030Z,6.13
2023-04-16T05:56:48.248Z,5.93
2023-04-16T05:59:16.094Z,5.60
2023-04-16T06:01:43.971Z,5.47
2023-04-16T06:04:12.620Z,5.60
2023-04-16T06:06:40.846Z,4.73
2023-04-16T06:09:08.903Z,4.80
2023-04-16T06:11:37.135Z,5.13
2023-04-16T06:14:06.536Z,5.00
2023-04-16T06:16:34.510Z,4.90
2023-04-16T06:19:03.059Z,4.80
2023-04-16T06:21:31.785Z,5.37
2023-04-16T06:23:59.718Z,4.80
2023-04-16T06:26:27.735Z,4.73
2023-04-16T06:28:55.680Z,5.13
2023-04-16T06:31:25.452Z,5.63
2023-04-16T06:33:53.445Z,5.47
2023-04-16T06:36:24.835Z,5.80
2023-04-16T06:38:52.756Z,5.67
2023-04-16T06:41:23.758Z,5.13
2023-04-16T06:43:51.763Z,5.43
2023-04-16T06:46:19.666Z,5.60
2023-04-16T06:48:48.942Z,6.00
2023-04-16T06:51:17.034Z,5.27
2023-04-16T06:53:45.013Z,5.83
2023-04-16T06:56:20.352Z,6.20
2023-04-16T06:58:49.307Z,5.93
2023-04-16T07:01:20.663Z,5.40
2023-04-16T07:03:50.761Z,6.00
2023-04-16T07:06:18.922Z,6.07
2023-04-16T07:08:47.021Z,5.40
2023-04-16T07:11:15.056Z,6.03
2023-04-16T07:13:42.951Z,5.47
2023-04-16T07:16:14.035Z,5.70
2023-04-16T07:18:48.388Z,5.67
2023-04-16T07:21:21.462Z,6.73
2023-04-16T07:23:50.360Z,4.73
2023-04-16T07:26:19.846Z,5.90
2023-04-16T07:28:48.284Z,6.03
2023-04-16T07:31:16.492Z,5.50
2023-04-16T07:33:44.324Z,5.83
2023-04-16T07:36:12.377Z,5.53
2023-04-16T07:38:41.561Z,5.97
2023-04-16T07:41:09.515Z,5.57
2023-04-16T07:43:37.866Z,5.10
2023-04-16T07:46:06.221Z,6.27
2023-04-16T07:48:34.210Z,5.67
2023-04-16T07:51:02.228Z,5.33
2023-04-16T07:53:30.248Z,5.40
2023-04-16T07:55:59.541Z,4.80
2023-04-16T07:58:27.472Z,5.30
2023-04-16T08:00:55.380Z,4.97
2023-04-16T08:03:24.349Z,4.80
2023-04-16T08:05:52.827Z,4.30
2023-04-16T08:08:20.770Z,4.40
2023-04-16T08:10:48.819Z,4.90
2023-04-16T08:13:18.122Z,4.63
2023-04-16T08:15:46.270Z,4.57
2023-04-16T08:18:15.669Z,4.63
2023-04-16T08:20:44.082Z,4.83
2023-04-16T08:23:12.520Z,4.47
2023-04-16T08:25:40.794Z,4.63
2023-04-16T08:28:08.934Z,5.03
2023-04-16T08:30:38.357Z,4.60
2023-04-16T08:33:09.523Z,3.70
2023-04-16T08:35:37.668Z,3.73
2023-04-16T08:38:07.410Z,3.80
2023-04-16T08:40:38.530Z,4.03
2023-04-16T08:43:11.125Z,4.33
2023-04-16T08:45:42.479Z,4.17
2023-04-16T08:48:13.017Z,4.47
2023-04-16T08:50:43.095Z,3.63
2023-04-16T08:53:19.210Z,3.77
2023-04-16T08:55:49.904Z,3.63
2023-04-16T08:58:20.858Z,3.10
2023-04-16T09:00:50.685Z,3.37
2023-04-16T09:03:19.830Z,2.57
2023-04-16T09:05:48.966Z,3.43
2023-04-16T09:08:18.442Z,2.90
2023-04-16T09:10:46.877Z,3.10
2023-04-16T09:13:16.920Z,3.83
2023-04-16T09:15:45.562Z,3.20
2023-04-16T09:18:14.847Z,2.40
2023-04-16T09:20:42.822Z,2.27
2023-04-16T09:23:12.202Z,2.70
2023-04-16T09:25:40.153Z,2.20
2023-04-16T09:28:08.081Z,1.93
2023-04-16T09:30:37.168Z,2.00
2023-04-16T09:33:22.815Z,1.80
2023-04-16T09:35:53.279Z,2.03
2023-04-16T09:38:21.794Z,2.27
2023-04-16T09:41:06.645Z,1.63
2023-04-16T09:43:35.749Z,2.67
2023-04-16T09:46:08.183Z,2.13
2023-04-16T09:48:38.444Z,2.40
2023-04-16T09:51:08.300Z,2.57
2023-04-16T09:53:36.645Z,2.60
2023-04-16T09:56:07.323Z,2.50
2023-04-16T09:58:37.719Z,2.33
2023-04-16T10:01:09.050Z,2.50
2023-04-16T10:03:40.217Z,2.63
2023-04-16T10:06:11.300Z,2.67
2023-04-16T10:08:43.843Z,2.23
2023-04-16T10:11:12.358Z,3.57
2023-04-16T10:13:40.564Z,3.10
2023-04-16T10:16:10.022Z,3.37
2023-04-16T10:18:41.176Z,2.80
2023-04-16T10:21:11.929Z,2.97
2023-04-16T10:23:40.934Z,3.23
2023-04-16T10:26:09.518Z,3.20
2023-04-16T10:28:38.293Z,3.10
2023-04-16T10:31:08.927Z,3.20
2023-04-16T10:33:41.233Z,3.00
2023-04-16T10:36:11.472Z,2.30
2023-04-16T10:38:45.110Z,3.47
2023-04-16T10:41:13.196Z,3.20
2023-04-16T10:43:45.998Z,2.53
2023-04-16T10:46:27.063Z,2.90
2023-04-16T10:48:57.783Z,2.90
2023-04-16T10:51:28.920Z,2.90
2023-04-16T10:53:57.597Z,2.70
2023-04-16T10:56:26.750Z,2.77
2023-04-16T10:58:56.098Z,2.10
2023-04-16T11:01:31.683Z,2.30
2023-04-16T11:04:37.955Z,2.00
2023-04-16T11:07:19.533Z,1.10
2023-04-16T11:10:02.654Z,1.20
2023-04-16T11:12:37.891Z,1.40
2023-04-16T11:15:07.931Z,1.20
2023-04-16T11:17:39.353Z,1.33
2023-04-16T11:20:17.373Z,1.50
2023-04-16T11:22:51.938Z,1.50
2023-04-16T11:25:27.203Z,1.40
2023-04-16T11:27:58.892Z,0.90
2023-04-16T11:30:31.141Z,1.40
2023-04-16T11:32:59.926Z,1.30
2023-04-16T11:35:29.860Z,1.40
2023-04-16T11:37:59.145Z,1.33
2023-04-16T11:40:31.488Z,1.53
2023-04-16T11:43:15.604Z,1.30
2023-04-16T11:46:00.437Z,1.40
2023-04-16T11:48:53.086Z,2.30
2023-04-16T11:51:35.390Z,1.80
2023-04-16T11:54:09.127Z,1.63
2023-04-16T11:56:39.242Z,1.30
2023-04-16T11:59:09.211Z,1.30
2023-04-16T12:01:39.157Z,1.40
2023-04-16T12:04:08.257Z,1.93
2023-04-16T12:07:11.386Z,1.43
2023-04-16T12:09:44.370Z,1.37
2023-04-16T12:12:36.681Z,1.90
2023-04-16T12:15:09.021Z,1.53
2023-04-16T12:17:37.996Z,2.00
2023-04-16T12:20:11.153Z,2.70
2023-04-16T12:22:45.384Z,1.80
2023-04-16T12:25:16.752Z,1.70
2023-04-16T12:27:47.418Z,1.77
2023-04-16T12:30:17.204Z,1.97
2023-04-16T12:32:47.297Z,1.77
2023-04-16T12:35:38.185Z,1.70
2023-04-16T12:38:07.954Z,1.80
2023-04-16T12:40:37.034Z,2.53
2023-04-16T12:43:05.702Z,1.47
2023-04-16T12:45:35.824Z,1.40
2023-04-16T12:48:04.249Z,1.87
2023-04-16T12:50:32.454Z,1.70
2023-04-16T12:53:00.841Z,1.60
2023-04-16T12:55:32.663Z,1.60
2023-04-16T12:58:01.059Z,1.30
2023-04-16T13:00:29.168Z,1.20
2023-04-16T13:02:59.459Z,0.97
2023-04-16T13:05:28.095Z,1.80
2023-04-16T13:07:56.087Z,1.60
2023-04-16T13:10:24.885Z,1.53
2023-04-16T13:12:56.063Z,1.77
2023-04-16T13:15:24.508Z,2.00
2023-04-16T13:17:52.807Z,1.27
2023-04-16T13:20:22.499Z,1.33
2023-04-16T13:22:52.131Z,1.43
2023-04-16T13:25:20.455Z,1.90
2023-04-16T13:27:48.716Z,1.30
2023-04-16T13:30:18.478Z,1.80
2023-04-16T13:32:46.897Z,1.50
2023-04-16T13:35:15.600Z,1.50
2023-04-16T13:37:49.623Z,1.70
2023-04-16T13:40:29.382Z,1.80
2023-04-16T13:43:01.803Z,2.03
2023-04-16T13:45:31.308Z,1.60
2023-04-16T13:48:02.261Z,1.43
2023-04-16T13:50:30.394Z,1.43
2023-04-16T13:52:58.455Z,1.37
2023-04-16T13:55:38.596Z,1.50
2023-04-16T13:58:11.016Z,1.27
2023-04-16T14:00:47.791Z,1.03
2023-04-16T14:03:16.041Z,1.10
2023-04-16T14:05:44.472Z,1.20
2023-04-16T14:08:15.072Z,1.53
2023-04-16T14:10:43.399Z,1.17
2023-04-16T14:13:12.435Z,1.30
2023-04-16T14:15:44.439Z,1.50
2023-04-16T14:18:13.075Z,1.40
2023-04-16T14:20:42.300Z,1.77
2023-04-16T14:23:12.761Z,1.67
2023-04-16T14:25:41.039Z,1.80
2023-04-16T14:28:09.804Z,1.50
2023-04-16T14:30:37.997Z,1.80
2023-04-16T14:33:07.857Z,1.33
2023-04-16T14:35:37.996Z,1.57
2023-04-16T14:38:06.778Z,1.80
2023-04-16T14:40:38.584Z,2.00
2023-04-16T14:43:11.003Z,1.83
2023-04-16T14:45:45.693Z,2.40
2023-04-16T14:48:19.237Z,2.13
2023-04-16T14:50:50.843Z,2.20
2023-04-16T14:53:23.982Z,2.50
2023-04-16T14:55:53.263Z,2.13
2023-04-16T14:58:24.049Z,1.60
2023-04-16T15:00:52.322Z,2.17
2023-04-16T15:03:32.039Z,1.77
2023-04-16T15:06:06.656Z,1.80
2023-04-16T15:08:35.667Z,2.00
2023-04-16T15:11:18.578Z,2.03
2023-04-16T15:13:46.974Z,2.30
2023-04-16T15:16:26.237Z,1.53
2023-04-16T15:18:56.016Z,1.90
2023-04-16T15:21:24.262Z,2.07
2023-04-16T15:23:56.084Z,2.43
2023-04-16T15:26:24.321Z,2.07
2023-04-16T15:28:59.416Z,1.87
2023-04-16T15:31:30.772Z,2.20
2023-04-16T15:34:19.058Z,1.97
2023-04-16T15:37:08.535Z,2.30
2023-04-16T15:39:36.620Z,1.40
2023-04-16T15:42:07.338Z,1.63
2023-04-16T15:44:35.805Z,1.90
2023-04-16T15:47:03.732Z,2.30
2023-04-16T15:53:33.085Z,1.60
2023-04-16T15:56:10.620Z,1.30
2023-04-16T15:59:07.302Z,1.30
2023-04-16T16:01:35.436Z,2.00
2023-04-16T16:04:03.896Z,1.60
2023-04-16T16:06:33.304Z,2.03
2023-04-16T16:09:01.836Z,2.20
2023-04-16T16:11:30.015Z,2.50
2023-04-16T16:13:57.963Z,1.50
2023-04-16T16:16:26.244Z,1.80
2023-04-16T16:18:54.542Z,2.10
2023-04-16T16:21:28.948Z,1.60
2023-04-16T16:24:04.188Z,2.00
2023-04-16T16:26:32.388Z,2.10
2023-04-16T16:29:01.463Z,2.23
2023-04-16T16:31:29.631Z,2.10
2023-04-16T16:33:59.876Z,3.07
2023-04-16T16:36:32.544Z,1.60
2023-04-16T16:39:04.340Z,2.97
2023-04-16T16:41:32.678Z,1.67
2023-04-16T16:44:20.844Z,2.57
2023-04-16T16:46:52.686Z,2.43
2023-04-16T16:49:20.923Z,1.90
2023-04-16T16:51:52.024Z,2.00
2023-04-16T16:54:22.705Z,2.20
2023-04-16T16:56:51.140Z,1.50
2023-04-16T16:59:19.195Z,1.50
2023-04-16T17:01:47.314Z,1.60
2023-04-16T17:04:17.164Z,1.43
2023-04-16T17:06:51.042Z,1.50
2023-04-16T17:09:21.642Z,1.50
2023-04-16T17:11:58.173Z,1.83
2023-04-16T17:14:26.474Z,1.40
2023-04-16T17:16:54.910Z,1.67
2023-04-16T17:19:26.227Z,1.53
2023-04-16T17:21:54.658Z,1.57
2023-04-16T17:24:27.873Z,1.60
2023-04-16T17:26:58.540Z,1.43
2023-04-16T17:29:26.820Z,1.83
2023-04-16T17:31:55.156Z,1.67
2023-04-16T17:34:23.306Z,1.70
2023-04-16T17:36:54.535Z,1.30
2023-04-16T17:39:22.827Z,1.90
2023-04-16T17:41:54.227Z,1.70
2023-04-16T17:44:25.718Z,1.97
2023-04-16T17:46:53.651Z,1.70
2023-04-16T17:49:21.606Z,1.13
2023-04-16T17:51:49.655Z,1.30
2023-04-16T17:54:17.669Z,1.47
2023-04-16T17:56:46.253Z,1.60
2023-04-16T17:59:14.594Z,1.60
2023-04-16T18:01:44.686Z,1.53
2023-04-16T18:04:18.691Z,1.90
2023-04-16T18:06:47.342Z,1.57
2023-04-16T18:09:15.744Z,1.43
2023-04-16T18:11:44.133Z,1.37
2023-04-16T18:14:14.165Z,1.80
2023-04-16T18:16:43.745Z,1.60
2023-04-16T18:19:11.830Z,1.77
2023-04-16T18:21:43.467Z,2.03
2023-04-16T18:24:12.050Z,2.00
2023-04-16T18:26:41.297Z,2.73
2023-04-16T18:29:09.560Z,1.80
2023-04-16T18:31:44.154Z,1.90
2023-04-16T18:34:16.848Z,1.57
2023-04-16T18:36:47.827Z,1.80
2023-04-16T18:39:16.220Z,2.00
2023-04-16T18:41:47.973Z,2.10
2023-04-16T18:44:29.232Z,1.47
2023-04-16T18:47:10.755Z,2.40
2023-04-16T18:50:59.223Z,2.00
2023-04-16T18:57:08.720Z,2.07
2023-04-16T18:59:39.339Z,2.53
2023-04-16T19:02:34.026Z,2.57
2023-04-16T19:08:10.307Z,2.43
2023-04-16T19:14:06.573Z,2.50
2023-04-16T19:16:51.913Z,2.13
2023-04-16T19:28:45.841Z,2.47
2023-04-16T19:34:43.906Z,2.97
2023-04-16T19:38:13.764Z,3.07
2023-04-16T19:44:19.547Z,2.20
2023-04-16T19:47:23.065Z,2.97
2023-04-16T19:50:08.341Z,2.67
2023-04-16T19:52:39.459Z,2.30
2023-04-16T19:55:19.232Z,2.03
2023-04-16T19:58:00.894Z,2.10
2023-04-16T20:00:43.772Z,1.80
2023-04-16T20:04:18.008Z,1.90
2023-04-16T20:08:00.733Z,2.00
2023-04-16T20:10:31.522Z,1.93
2023-04-16T20:13:01.499Z,1.87
2023-04-16T20:15:30.136Z,1.90
2023-04-16T20:17:58.429Z,2.00
2023-04-16T20:20:26.412Z,2.23
2023-04-16T20:22:54.336Z,2.13
2023-04-16T20:25:22.673Z,1.80
2023-04-16T20:27:53.762Z,1.70
2023-04-16T20:30:30.031Z,1.63
2023-04-16T20:33:03.046Z,1.40
2023-04-16T20:35:31.677Z,1.33
2023-04-16T20:38:33.632Z,2.07
2023-04-16T20:41:10.782Z,1.70
2023-04-16T20:43:42.194Z,1.87
2023-04-16T20:46:12.745Z,2.50
2023-04-16T20:48:41.476Z,1.83
2023-04-16T20:51:10.475Z,2.13
2023-04-16T20:53:38.905Z,1.80
2023-04-16T20:56:09.374Z,2.10
2023-04-16T20:58:39.507Z,1.90
2023-04-16T21:01:07.862Z,2.10
2023-04-16T21:03:40.769Z,2.00
2023-04-16T21:06:10.100Z,1.83
2023-04-16T21:08:38.652Z,2.50
2023-04-16T21:11:06.982Z,2.13
2023-04-16T21:13:35.816Z,1.90
2023-04-16T21:16:05.143Z,1.90
2023-04-16T21:18:33.432Z,1.90
2023-04-16T21:21:03.277Z,2.40
2023-04-16T21:23:31.602Z,2.50
2023-04-16T21:26:00.052Z,2.43
2023-04-16T21:28:28.355Z,1.97
2023-04-16T21:30:56.438Z,2.47
2023-04-16T21:33:24.736Z,2.80
2023-04-16T21:35:56.321Z,2.67
2023-04-16T21:38:26.272Z,2.33
2023-04-16T21:40:55.799Z,2.70
2023-04-16T21:43:27.743Z,3.10
2023-04-16T21:46:01.106Z,2.70
2023-04-16T21:48:30.219Z,3.37
2023-04-16T21:51:06.494Z,3.00
2023-04-16T21:53:37.290Z,3.20
2023-04-16T21:56:07.456Z,3.10
2023-04-16T21:58:39.265Z,3.17
2023-04-16T22:01:09.553Z,3.00
2023-04-16T22:03:40.837Z,3.50
2023-04-16T22:06:11.797Z,2.97
2023-04-16T22:08:44.456Z,3.53
2023-04-16T22:11:12.739Z,3.03
2023-04-16T22:13:43.128Z,3.03
2023-04-16T22:16:11.854Z,3.43
2023-04-16T22:18:41.297Z,3.80
2023-04-16T22:21:09.616Z,3.10
2023-04-16T22:23:38.123Z,2.70
2023-04-16T22:26:09.067Z,3.43
2023-04-16T22:28:37.915Z,2.70
2023-04-16T22:31:06.826Z,2.83
2023-04-16T22:33:34.914Z,2.90
2023-04-16T22:36:03.200Z,3.00
2023-04-16T22:38:31.625Z,3.40
2023-04-16T22:40:59.988Z,3.30
2023-04-16T22:43:31.402Z,3.20
2023-04-16T22:46:04.496Z,3.70
2023-04-16T22:48:33.160Z,3.23
2023-04-16T22:51:01.337Z,4.03
2023-04-16T22:53:29.394Z,2.83
2023-04-16T22:55:57.379Z,3.03
2023-04-16T22:58:25.719Z,3.30
2023-04-16T23:00:56.834Z,3.27
2023-04-16T23:03:25.290Z,3.37
2023-04-16T23:05:53.374Z,2.90
2023-04-16T23:08:21.465Z,3.40
2023-04-16T23:10:49.395Z,3.20
2023-04-16T23:13:17.421Z,2.97
2023-04-16T23:15:47.508Z,3.53
2023-04-16T23:18:17.393Z,3.90
2023-04-16T23:20:51.916Z,3.60
2023-04-16T23:23:20.028Z,2.80
2023-04-16T23:26:00.155Z,2.87
2023-04-16T23:28:31.151Z,3.17
2023-04-16T23:30:59.223Z,3.40
2023-04-16T23:33:28.919Z,2.70
2023-04-16T23:35:56.975Z,3.57
2023-04-16T23:38:25.325Z,3.20
2023-04-16T23:40:53.520Z,3.20
2023-04-16T23:43:21.621Z,3.50
2023-04-16T23:45:53.052Z,3.83
2023-04-16T23:48:21.415Z,3.20
2023-04-16T23:50:50.881Z,3.43
2023-04-16T23:53:19.190Z,4.57
2023-04-16T23:55:47.249Z,3.40
2023-04-16T23:58:16.913Z,2.80
